Latest Weather Observations for Eildon Fire Tower

IDV60801

Issued at 7:02 pm EST Saturday 13 April 2024 (issued every 10 minutes, with the page automatically refreshed every 10 minutes)

About weather observations | Map of weather stations | Latest weather observations for VIC | Other Formats
Station Details ID: 088164 Name: EILDON FIRE TOWER Lat: -37.21 Lon: 145.84 Height: 637.0 m
Data from the previous 72 hours. | See also: Recent months at Eildon Fire Tower
Date/Time
EST
Temp
°C
App
Temp
°C
Dew
Point
°C
Rel
Hum
%
Delta-T
°C
Wind Press
QNH
hPa
Press
MSL
hPa
Rain since
9am
mm
Dir  Spd
km/h
Gust
km/h
Spd
kts
Gust
kts
13/07:00pm 11.0 7.7 8.1 82 1.5 WSW 15 17 8 9 - - 0.0
13/06:30pm 11.5 7.3 8.4 81 1.6 W 20 22 11 12 - - 0.0
13/06:00pm 12.3 8.4 8.6 78 1.9 W 19 22 10 12 - - 0.0
13/05:30pm 14.3 10.7 8.5 68 3.0 WSW 17 20 9 11 - - 0.0
13/05:00pm 15.5 12.3 8.5 63 3.7 WSW 15 22 8 12 - - 0.0
13/04:30pm 16.4 13.1 8.1 58 4.3 WSW 15 20 8 11 - - 0.0
13/04:00pm 16.8 14.8 7.2 53 4.9 SW 7 15 4 8 - - 0.0
13/03:30pm 16.6 14.7 7.5 55 4.7 SSW 7 13 4 7 - - 0.0
13/03:00pm 16.7 15.1 8.1 57 4.5 SSW 6 11 3 6 - - 0.0
13/02:30pm 16.5 14.7 8.0 57 4.4 SW 7 13 4 7 - - 0.0
13/02:00pm 16.7 14.2 8.4 58 4.4 WSW 11 19 6 10 - - 0.0
13/01:30pm 15.7 14.1 8.7 63 3.7 WSW 7 13 4 7 - - 0.0
13/01:00pm 13.7 12.0 8.3 70 2.8 SE 7 9 4 5 - - 0.0
13/12:30pm 16.7 16.1 10.3 66 3.5 NNW 4 7 2 4 - - 0.0
13/12:00pm 12.9 12.1 8.2 73 2.4 S 2 6 1 3 - - 0.0
13/11:30am 12.5 11.0 8.6 77 2.0 W 6 7 3 4 - - 0.0
13/11:00am 11.5 10.0 8.4 81 1.6 WSW 6 9 3 5 - - 0.0
13/10:30am 10.4 8.8 8.7 89 0.9 W 7 9 4 5 - - 0.0
13/10:00am 9.9 8.4 8.3 90 0.8 NNW 6 7 3 4 - - 0.0
13/09:30am 10.7 10.6 9.3 91 0.7 CALM 0 0 0 0 - - 0.0
13/09:00am 10.4 9.6 8.3 87 1.1 E 2 6 1 3 - - 0.2
13/08:30am 8.7 7.1 7.8 94 0.4 WSW 6 7 3 4 - - 0.2
13/08:00am 9.6 9.0 9.0 96 0.3 W 2 4 1 2 - - 0.2
13/07:30am 8.7 8.0 8.4 98 0.2 W 2 2 1 1 - - 0.2
13/07:00am 7.9 6.0 7.6 98 0.1 W 7 9 4 5 - - 0.2
13/06:30am 8.0 6.1 7.7 98 0.1 SW 7 9 4 5 - - 0.2
13/06:00am 8.0 6.6 7.4 96 0.3 SE 4 4 2 2 - - 0.2
13/05:30am 8.4 6.6 7.2 92 0.6 SE 6 11 3 6 - - 0.2
13/05:00am 8.1 6.7 7.2 94 0.4 SE 4 6 2 3 - - 0.2
13/04:30am 8.6 6.9 7.5 93 0.5 SE 6 9 3 5 - - 0.2
13/04:00am 8.3 6.4 7.4 94 0.4 SSW 7 7 4 4 - - 0.2
13/03:30am 8.7 8.0 8.4 98 0.2 SSW 2 6 1 3 - - 0.2
13/03:00am 8.1 5.5 7.8 98 0.1 SW 11 11 6 6 - - 0.2
13/02:30am 8.1 5.1 7.8 98 0.1 WSW 13 15 7 8 - - 0.0
13/02:00am 8.3 6.1 7.9 97 0.2 W 9 11 5 6 - - 0.0
13/01:30am 8.6 6.8 8.0 96 0.3 SW 7 7 4 4 - - 0.0
13/01:00am 9.0 6.8 7.8 92 0.6 SSW 9 13 5 7 - - 0.0
13/12:30am 9.3 7.5 8.1 92 0.6 SSW 7 9 4 5 - - 0.0
13/12:00am 9.4 8.2 8.2 92 0.6 SSW 4 6 2 3 - - 0.0
 
Date/Time
EST
Temp
°C
App
Temp
°C
Dew
Point
°C
Rel
Hum
%
Delta-T
°C
Wind Press
QNH
hPa
Press
MSL
hPa
Rain since
9am
mm
Dir  Spd
km/h
Gust
km/h
Spd
kts
Gust
kts
12/11:30pm 8.9 7.4 8.5 97 0.2 SSW 6 7 3 4 - - 0.0
12/11:00pm 8.8 7.1 8.2 96 0.3 S 7 11 4 6 - - 0.0
12/10:30pm 9.0 7.5 8.6 97 0.2 SSW 6 7 3 4 - - 0.0
12/10:00pm 9.2 8.1 8.6 96 0.3 SW 4 6 2 3 - - 0.0
12/09:30pm 9.3 8.3 8.7 96 0.3 SW 4 6 2 3 - - 0.0
12/09:00pm 9.4 7.8 8.8 96 0.3 WSW 7 11 4 6 - - 0.0
12/08:30pm 9.5 6.4 8.7 95 0.4 WSW 15 17 8 9 - - 0.0
12/08:00pm 9.7 5.8 8.6 93 0.6 WSW 19 22 10 12 - - 0.0
12/07:30pm 10.1 6.0 8.5 90 0.8 WSW 20 22 11 12 - - 0.0
12/07:00pm 10.4 6.5 8.5 88 1.0 WSW 19 22 10 12 - - 0.0
12/06:30pm 11.3 6.8 8.5 83 1.4 SW 22 26 12 14 - - 0.0
12/06:00pm 11.9 7.5 8.9 82 1.6 WSW 22 28 12 15 - - 0.0
12/05:30pm 13.5 9.2 9.2 75 2.3 WSW 22 28 12 15 - - 0.0
12/05:00pm 15.0 11.7 8.0 63 3.6 WSW 15 20 8 11 - - 0.0
12/04:30pm 16.4 14.3 8.1 58 4.3 WSW 9 17 5 9 - - 0.0
12/04:00pm 17.5 15.7 8.1 54 5.0 W 7 17 4 9 - - 0.0
12/03:30pm 17.7 15.6 8.3 54 5.0 WNW 9 15 5 8 - - 0.0
12/03:00pm 17.8 16.2 8.9 56 4.8 W 7 11 4 6 - - 0.0
12/02:30pm 16.9 15.4 9.1 60 4.2 S 7 13 4 7 - - 0.0
12/02:00pm 15.7 13.5 7.7 59 4.1 SSW 9 13 5 7 - - 0.0
12/01:30pm 15.7 14.8 9.4 66 3.4 WNW 4 7 2 4 - - 0.0
12/01:00pm 14.1 12.5 8.1 67 3.1 SSW 6 11 3 6 - - 0.0
12/12:30pm 17.3 16.1 9.5 60 4.2 ESE 6 11 3 6 - - 0.0
12/12:00pm 14.4 12.8 8.8 69 2.9 WSW 7 11 4 6 - - 0.0
12/11:30am 13.6 12.2 8.9 73 2.5 SE 6 9 3 5 - - 0.0
12/11:00am 12.9 11.0 9.0 77 2.0 SE 9 13 5 7 - - 0.0
12/10:30am 11.5 9.9 8.9 84 1.3 SE 7 13 4 7 - - 0.0
12/10:00am 13.7 12.5 9.4 75 2.3 E 6 9 3 5 - - 0.0
12/09:30am 12.3 10.9 8.8 79 1.8 ESE 6 7 3 4 - - 0.0
12/09:00am 11.9 9.8 8.4 79 1.8 ESE 9 11 5 6 - - 0.0
12/08:30am 10.3 8.1 7.7 84 1.3 ENE 9 11 5 6 - - 0.0
12/08:00am 10.2 7.2 7.8 85 1.2 ESE 13 15 7 8 - - 0.0
12/07:30am 9.3 6.2 7.3 87 1.0 ESE 13 19 7 10 - - 0.0
12/07:00am 8.3 6.4 6.6 89 0.8 SE 6 7 3 4 - - 0.0
12/06:30am 8.0 6.8 6.3 89 0.8 SSE 2 4 1 2 - - 0.0
12/06:00am 7.9 7.0 6.2 89 0.8 CALM 0 0 0 0 - - 0.0
12/05:30am 7.9 7.1 6.4 90 0.7 CALM 0 0 0 0 - - 0.0
12/05:00am 8.3 7.1 6.6 89 0.8 SSE 2 2 1 1 - - 0.0
12/04:30am 8.3 6.7 6.4 88 0.9 SSE 4 4 2 2 - - 0.0
12/04:00am 8.3 6.4 6.6 89 0.8 SSE 6 7 3 4 - - 0.0
12/03:30am 8.3 5.9 6.8 90 0.7 SE 9 11 5 6 - - 0.0
12/03:00am 8.5 6.0 6.6 88 0.9 SSE 9 13 5 7 - - 0.0
12/02:30am 8.4 5.5 6.7 89 0.8 SE 11 15 6 8 - - 0.0
12/02:00am 8.6 6.5 6.6 87 1.0 SE 7 9 4 5 - - 0.0
12/01:30am 8.6 6.5 6.7 88 0.9 SE 7 9 4 5 - - 0.0
12/01:00am 8.7 5.9 6.8 88 0.9 SE 11 15 6 8 - - 0.0
12/12:30am 8.9 6.0 6.7 86 1.1 SE 11 15 6 8 - - 0.0
12/12:00am 9.1 6.6 6.7 85 1.2 SE 9 13 5 7 - - 0.0
 
Date/Time
EST
Temp
°C
App
Temp
°C
Dew
Point
°C
Rel
Hum
%
Delta-T
°C
Wind Press
QNH
hPa
Press
MSL
hPa
Rain since
9am
mm
Dir  Spd
km/h
Gust
km/h
Spd
kts
Gust
kts
11/11:30pm 9.3 8.6 6.9 85 1.2 CALM 0 0 0 0 - - 0.0
11/11:00pm 9.4 7.9 7.0 85 1.2 W 4 4 2 2 - - 0.0
11/10:30pm 9.2 7.3 6.8 85 1.2 S 6 7 3 4 - - 0.0
11/10:00pm 9.8 8.3 6.7 81 1.5 SSE 4 6 2 3 - - 0.0
11/09:30pm 9.7 7.7 7.0 83 1.3 SSE 7 15 4 8 - - 0.0
11/09:00pm 9.7 8.3 7.3 85 1.2 WSW 4 6 2 3 - - 0.0
11/08:30pm 9.5 7.7 7.1 85 1.2 WSW 6 9 3 5 - - 0.0
11/08:00pm 9.7 7.9 7.1 84 1.3 WSW 6 7 3 4 - - 0.0
11/07:30pm 10.1 8.1 7.3 83 1.4 W 7 9 4 5 - - 0.0
11/07:00pm 10.3 6.8 7.2 81 1.5 W 15 17 8 9 - - 0.0
11/06:30pm 10.8 6.6 7.3 79 1.7 WSW 19 20 10 11 - - 0.0
11/06:00pm 11.6 7.2 7.5 76 2.1 WSW 20 22 11 12 - - 0.0
11/05:30pm 13.3 8.9 7.5 68 2.9 WSW 20 26 11 14 - - 0.0
11/05:00pm 14.4 9.7 7.7 64 3.4 WSW 22 28 12 15 - - 0.0
11/04:30pm 14.9 10.2 7.9 63 3.6 WSW 22 28 12 15 - - 0.0
11/04:00pm 15.8 12.2 8.3 61 3.9 WSW 17 24 9 13 - - 0.0
11/03:30pm 16.2 12.8 7.7 57 4.4 WSW 15 22 8 12 - - 0.0
11/03:00pm 15.5 12.5 7.5 59 4.1 SW 13 20 7 11 - - 0.0
11/02:30pm 16.0 12.3 8.0 59 4.2 WSW 17 26 9 14 - - 0.0
11/02:00pm 15.7 11.6 8.0 60 4.0 WSW 19 24 10 13 - - 0.0
11/01:30pm 15.8 12.9 8.1 60 4.0 WSW 13 24 7 13 - - 0.0
11/01:00pm 14.5 12.1 6.8 60 3.9 SW 9 17 5 9 - - 0.0
11/12:30pm 16.0 14.5 8.5 61 3.9 SW 6 13 3 7 - - 0.0
11/12:00pm 14.2 12.5 7.5 64 3.4 WSW 6 9 3 5 - - 0.0
11/11:30am 13.8 12.4 7.1 64 3.4 WSW 4 6 2 3 - - 0.0
11/11:00am 13.0 11.3 7.5 69 2.8 NW 6 9 3 5 - - 0.0
11/10:30am 12.1 10.7 7.2 72 2.4 W 4 6 2 3 - - 0.0
11/10:00am 11.8 9.6 7.7 76 2.1 W 9 11 5 6 - - 0.0
11/09:30am 11.9 10.3 8.2 78 1.9 W 6 7 3 4 - - 0.0
11/09:00am 14.1 13.1 8.9 71 2.7 E 4 7 2 4 - - 0.0
11/08:30am 13.0 11.9 8.5 74 2.3 ESE 4 6 2 3 - - 0.0
11/08:00am 11.8 10.1 8.3 79 1.8 ESE 7 9 4 5 - - 0.0
11/07:30am 10.5 8.6 7.7 83 1.4 ESE 7 15 4 8 - - 0.0
11/07:00am 9.0 7.0 7.3 89 0.8 SSE 7 9 4 5 - - 0.0
11/06:30am 8.4 6.3 6.7 89 0.8 SSE 7 9 4 5 - - 0.0
11/06:00am 8.6 6.5 6.7 88 0.9 SSE 7 9 4 5 - - 0.0
11/05:30am 8.0 5.3 7.2 95 0.4 SW 11 13 6 7 - - 0.0
11/05:00am 8.0 4.5 7.1 94 0.4 WSW 15 19 8 10 - - 0.0
11/04:30am 8.4 4.5 7.0 91 0.7 SW 17 20 9 11 - - 0.0
11/04:00am 8.4 5.8 6.0 85 1.1 WSW 9 13 5 7 - - 0.0
11/03:30am 8.7 5.9 5.3 79 1.6 SSW 9 17 5 9 - - 0.0
11/03:00am 9.2 6.5 5.4 77 1.8 SSE 9 22 5 12 - - 0.0
11/02:30am 9.0 5.9 5.6 79 1.6 SSE 11 24 6 13 - - 0.0
11/02:00am 8.9 5.1 6.0 82 1.4 SW 15 17 8 9 - - 0.0
11/01:30am 9.1 5.4 6.4 83 1.3 SW 15 22 8 12 - - 0.0
11/01:00am 9.2 5.2 6.5 83 1.3 WSW 17 28 9 15 - - 0.0
11/12:30am 9.4 4.9 6.3 81 1.5 SW 19 26 10 14 - - 0.0
11/12:00am 9.3 6.1 6.9 85 1.2 SW 13 17 7 9 - - 0.0
 
Date/Time
EST
Temp
°C
App
Temp
°C
Dew
Point
°C
Rel
Hum
%
Delta-T
°C
Wind Press
QNH
hPa
Press
MSL
hPa
Rain since
9am
mm
Dir  Spd
km/h
Gust
km/h
Spd
kts
Gust
kts
10/11:30pm 9.6 6.0 6.9 83 1.3 SW 15 22 8 12 - - 0.0
10/11:00pm 10.2 6.6 6.7 79 1.7 SW 15 26 8 14 - - 0.0
10/10:30pm 10.4 7.3 7.1 80 1.6 SW 13 24 7 13 - - 0.0
10/10:00pm 10.3 6.0 7.0 80 1.6 WSW 19 32 10 17 - - 0.0
10/09:30pm 10.1 5.2 7.0 81 1.5 SW 22 32 12 17 - - 0.0
10/09:00pm 9.9 5.4 7.0 82 1.4 WSW 20 32 11 17 - - 0.0
10/08:30pm 10.1 6.3 7.5 84 1.3 WSW 17 26 9 14 - - 0.0
10/08:00pm 10.9 4.7 6.3 73 2.2 SW 28 39 15 21 - - 0.0
10/07:31pm 10.5 4.6 7.4 81 1.5 SW 28 48 15 26 - - 0.0
10/07:30pm 10.6 5.1 7.5 81 1.5 SW 26 48 14 26 - - 0.0

Other formats

Comma delimited format used in spreadsheet applications
http://www.bom.gov.au/fwo/IDV60801/IDV60801.94881.axf

JavaScript Object Notation format (JSON) in row-major order
http://www.bom.gov.au/fwo/IDV60801/IDV60801.94881.json

Data quality

Most of these data are generated automatically and are frequently updated. Quality checks on data are not normally performed. It is possible for incorrect values to appear. Refer to information at About Latest Weather Observations and please check the disclaimer before using these data.